Terminal Aerodrome Forecast
Issued by NWS Binghamton, NY

Home | Current Version | Previous Version | Text Only | Print | Product List | Glossary On
Versions: 1 2 3 4 5 6 7 8 9 10 11 12 13 14 15 16
668
FTUS41 KBGM 282331
TAFBGM
TAF
KBGM 282331Z 2900/2924 22005KT P6SM SCT100 BKN250
     FM290800 20005KT P6SM BKN100
     FM291500 22012G20KT P6SM SCT050 SCT100=

USA.gov is the U.S. government's official web portal to all federal, state and local government web resources and services.